Time;durP1;ratioP1;P1;durP2;ratioP2;P2;SDS_P1;SDS_P2;PMS_P1;PMS_P2;Temp;Humidity;BMP_temperature;BMP_pressure;BME280_temperature;BME280_humidity;BME280_pressure;Samples;Min_cycle;Max_cycle;Signal;HPM_P1;HPM_P2
2022/03/06 00:00:59;;;;;;;7.53;3.43;;;0.80;99.90;;;;;;5102845;28;20231;-47
2022/03/06 00:03:25;;;;;;;7.63;3.73;;;0.80;99.90;;;;;;5101823;27;20203;-48
2022/03/06 00:05:52;;;;;;;5.43;3.73;;;0.90;99.90;;;;;;5090662;28;20219;-49
2022/03/06 00:08:19;;;;;;;4.70;3.93;;;0.80;99.90;;;;;;5099217;28;20200;-45
2022/03/06 00:10:45;;;;;;;4.30;3.23;;;0.80;99.90;;;;;;5103589;28;20207;-48
2022/03/06 00:13:14;;;;;;;4.07;3.67;;;0.80;99.90;;;;;;5093112;27;20216;-50
2022/03/06 00:15:41;;;;;;;4.77;4.03;;;0.80;99.90;;;;;;5105138;27;20204;-50
2022/03/06 00:18:08;;;;;;;5.90;3.77;;;0.80;99.90;;;;;;5104911;27;20205;-49
2022/03/06 00:20:35;;;;;;;3.67;3.33;;;0.80;99.90;;;;;;5103064;28;20276;-48
2022/03/06 00:23:03;;;;;;;4.87;3.43;;;0.70;99.90;;;;;;5088321;28;20223;-50
2022/03/06 00:25:31;;;;;;;3.73;3.37;;;0.70;99.90;;;;;;5102028;28;20298;-48
2022/03/06 00:27:57;;;;;;;5.40;2.97;;;0.70;99.90;;;;;;5102271;28;20203;-50
2022/03/06 00:30:26;;;;;;;5.07;3.70;;;0.70;99.90;;;;;;5101318;28;20192;-48
2022/03/06 00:32:52;;;;;;;5.37;3.43;;;0.70;99.90;;;;;;5103507;28;20215;-48
2022/03/06 00:35:20;;;;;;;4.70;2.80;;;0.70;99.90;;;;;;5099951;28;20220;-46
2022/03/06 00:37:47;;;;;;;3.43;3.13;;;0.70;99.90;;;;;;5089634;28;20200;-48
2022/03/06 00:40:13;;;;;;;3.13;2.83;;;0.70;99.90;;;;;;5099080;28;20199;-45
2022/03/06 00:42:40;;;;;;;3.30;2.93;;;0.70;99.90;;;;;;5103763;28;20226;-45
2022/03/06 00:45:08;;;;;;;3.63;2.90;;;0.70;99.90;;;;;;5100525;28;20256;-48
2022/03/06 00:47:38;;;;;;;5.67;2.97;;;0.70;99.90;;;;;;5102596;28;20257;-45
2022/03/06 00:50:06;;;;;;;5.60;3.13;;;0.70;99.90;;;;;;5100893;28;20209;-45
2022/03/06 00:52:33;;;;;;;3.87;2.87;;;0.70;99.90;;;;;;5089427;28;20228;-47
2022/03/06 00:55:00;;;;;;;3.43;3.03;;;0.70;99.90;;;;;;5099882;28;20211;-45
2022/03/06 00:57:27;;;;;;;4.50;2.90;;;0.70;99.90;;;;;;5100480;28;20195;-47
2022/03/06 00:59:54;;;;;;;3.30;2.60;;;0.70;99.90;;;;;;5102653;28;20212;-46
2022/03/06 01:02:22;;;;;;;4.27;2.87;;;0.70;99.90;;;;;;5099890;28;20223;-48
2022/03/06 01:04:50;;;;;;;2.90;2.53;;;0.70;99.90;;;;;;5103416;28;20196;-44
2022/03/06 01:07:17;;;;;;;2.80;2.30;;;0.60;99.90;;;;;;5098750;28;20807;-46
2022/03/06 01:09:44;;;;;;;6.30;2.80;;;0.70;99.90;;;;;;5089575;28;20217;-47
2022/03/06 01:12:12;;;;;;;4.33;2.83;;;0.60;99.90;;;;;;5099266;28;20222;-48
2022/03/06 01:14:39;;;;;;;3.67;2.90;;;0.70;99.90;;;;;;5103157;28;20199;-46
2022/03/06 01:17:06;;;;;;;4.27;3.37;;;0.60;99.90;;;;;;5099746;28;20208;-46
2022/03/06 01:19:33;;;;;;;3.37;2.30;;;0.60;99.90;;;;;;5102368;28;20215;-44
2022/03/06 01:22:01;;;;;;;3.80;2.87;;;0.60;99.90;;;;;;5101329;28;20715;-46
2022/03/06 01:24:28;;;;;;;3.80;2.90;;;0.60;99.90;;;;;;5084109;28;20210;-47
2022/03/06 01:26:55;;;;;;;2.47;2.27;;;0.60;99.90;;;;;;5101430;28;20567;-50
2022/03/06 01:29:22;;;;;;;4.60;2.83;;;0.60;99.90;;;;;;5100225;28;20789;-45
2022/03/06 01:31:49;;;;;;;4.47;2.83;;;0.60;99.90;;;;;;5103044;28;20218;-45
2022/03/06 01:34:16;;;;;;;4.03;2.30;;;0.60;99.90;;;;;;5099137;28;20187;-48
2022/03/06 01:36:43;;;;;;;2.60;2.40;;;0.60;99.90;;;;;;5102409;28;20207;-46
2022/03/06 01:39:11;;;;;;;4.20;2.47;;;0.60;99.90;;;;;;5087821;28;20195;-45
2022/03/06 01:41:38;;;;;;;4.13;2.30;;;0.60;99.90;;;;;;5102371;28;20690;-45
2022/03/06 01:44:06;;;;;;;4.07;2.40;;;0.60;99.90;;;;;;5100296;28;20203;-45
2022/03/06 01:46:33;;;;;;;5.53;2.57;;;0.60;99.90;;;;;;5101249;28;20207;-45
2022/03/06 01:49:00;;;;;;;2.70;2.23;;;0.60;99.90;;;;;;5101736;28;20199;-48
2022/03/06 01:51:26;;;;;;;4.60;2.60;;;0.60;99.90;;;;;;5100656;28;20221;-47
2022/03/06 01:53:53;;;;;;;4.53;2.67;;;0.60;99.90;;;;;;5102594;28;20193;-50
2022/03/06 01:56:22;;;;;;;3.00;2.33;;;0.60;99.90;;;;;;5085215;28;20212;-48
2022/03/06 01:58:49;;;;;;;3.53;2.30;;;0.60;99.90;;;;;;5106515;28;20196;-45
2022/03/06 02:01:16;;;;;;;2.53;2.33;;;0.60;99.90;;;;;;5102636;27;20212;-46
2022/03/06 02:03:43;;;;;;;2.63;2.33;;;0.60;99.90;;;;;;5106797;28;20219;-44
2022/03/06 02:06:10;;;;;;;2.60;2.40;;;0.60;99.90;;;;;;5102253;28;20201;-51
2022/03/06 02:08:38;;;;;;;6.73;2.40;;;0.60;99.90;;;;;;5106611;28;20220;-45
2022/03/06 02:11:06;;;;;;;3.40;2.73;;;0.60;99.90;;;;;;5090292;28;20216;-48
2022/03/06 02:13:34;;;;;;;2.60;2.37;;;0.60;99.90;;;;;;5105299;28;20198;-45
2022/03/06 02:16:02;;;;;;;5.07;2.20;;;0.60;99.90;;;;;;5104204;28;20205;-45
2022/03/06 02:18:29;;;;;;;2.83;2.53;;;0.60;99.90;;;;;;5104683;28;20288;-45
2022/03/06 02:20:56;;;;;;;3.37;2.00;;;0.60;99.90;;;;;;5105692;28;20207;-49
2022/03/06 02:23:24;;;;;;;3.17;1.87;;;0.60;99.90;;;;;;5103164;28;20657;-47
2022/03/06 02:25:52;;;;;;;3.60;2.40;;;0.60;99.90;;;;;;5105159;28;20218;-46
2022/03/06 02:28:19;;;;;;;3.83;2.20;;;0.60;99.90;;;;;;5098068;27;20210;-45
2022/03/06 02:30:45;;;;;;;3.47;2.03;;;0.60;99.90;;;;;;5106499;27;20199;-45
2022/03/06 02:33:14;;;;;;;2.83;1.97;;;0.70;99.90;;;;;;5101876;28;20200;-45
2022/03/06 02:35:41;;;;;;;4.23;2.07;;;0.60;99.90;;;;;;5106069;28;20206;-46
2022/03/06 02:38:08;;;;;;;1.63;1.53;;;0.60;99.90;;;;;;5102143;28;20203;-49
2022/03/06 02:40:42;;;;;;;3.60;2.13;;;0.60;99.90;;;;;;5105514;28;20206;-48
2022/03/06 02:43:10;;;;;;;3.47;2.30;;;0.60;99.90;;;;;;5088841;28;20580;-50
2022/03/06 02:45:39;;;;;;;2.33;2.13;;;0.60;99.90;;;;;;5105732;27;20223;-47
2022/03/06 02:48:06;;;;;;;3.50;1.87;;;0.60;99.90;;;;;;5102230;28;20221;-50
2022/03/06 02:50:35;;;;;;;3.03;2.03;;;0.60;99.90;;;;;;5105454;28;20286;-46
2022/03/06 02:53:05;;;;;;;1.77;1.60;;;0.60;99.90;;;;;;5103481;28;20273;-46
2022/03/06 02:55:33;;;;;;;3.63;1.63;;;0.60;99.90;;;;;;5104361;28;20199;-45
2022/03/06 02:58:01;;;;;;;4.07;1.90;;;0.60;99.90;;;;;;5089977;27;20208;-50
2022/03/06 03:00:28;;;;;;;2.73;2.00;;;0.70;99.90;;;;;;5101194;28;20219;-45
2022/03/06 03:02:56;;;;;;;2.63;1.83;;;0.60;99.90;;;;;;5104542;28;20226;-47
2022/03/06 03:05:25;;;;;;;3.00;1.87;;;0.60;99.90;;;;;;5102931;28;20187;-46
2022/03/06 03:07:52;;;;;;;3.47;1.90;;;0.70;99.90;;;;;;5104615;28;20234;-47
2022/03/06 03:10:23;;;;;;;3.37;1.63;;;0.70;99.90;;;;;;5101726;28;20208;-47
2022/03/06 03:12:50;;;;;;;2.47;1.90;;;0.60;99.90;;;;;;5092118;28;20254;-45
2022/03/06 03:15:19;;;;;;;3.40;1.57;;;0.60;99.90;;;;;;5100791;28;20199;-45
2022/03/06 03:17:46;;;;;;;1.73;1.50;;;0.60;99.90;;;;;;5104533;28;20213;-45
2022/03/06 03:20:15;;;;;;;2.60;1.80;;;0.60;99.90;;;;;;5101060;28;20213;-45
2022/03/06 03:22:42;;;;;;;2.70;1.70;;;0.60;99.90;;;;;;5105153;28;20306;-45
2022/03/06 03:25:09;;;;;;;2.83;1.60;;;0.60;99.90;;;;;;5101247;28;20207;-51
2022/03/06 03:27:37;;;;;;;1.40;1.30;;;0.60;99.90;;;;;;5091387;28;20219;-42
2022/03/06 03:30:06;;;;;;;1.67;1.20;;;0.70;99.90;;;;;;5101281;28;20204;-44
2022/03/06 03:32:34;;;;;;;3.60;1.53;;;0.70;99.90;;;;;;5104108;28;20869;-43
2022/03/06 03:35:01;;;;;;;3.03;1.63;;;0.70;99.90;;;;;;5102888;28;20211;-44
2022/03/06 03:37:28;;;;;;;2.73;1.80;;;0.70;99.90;;;;;;5102608;28;20209;-44
2022/03/06 03:39:55;;;;;;;1.90;1.33;;;0.70;99.90;;;;;;5104072;28;20213;-44
2022/03/06 03:42:23;;;;;;;2.23;1.80;;;0.70;99.90;;;;;;5088459;28;20319;-43
2022/03/06 03:44:50;;;;;;;2.67;1.60;;;0.70;99.90;;;;;;5104327;28;20196;-44
2022/03/06 03:47:17;;;;;;;2.57;2.13;;;0.70;99.90;;;;;;5100103;28;20809;-43
2022/03/06 03:49:50;;;;;;;3.17;2.07;;;0.70;99.90;;;;;;5104948;28;20298;-42
2022/03/06 03:52:17;;;;;;;1.93;1.43;;;0.70;99.90;;;;;;5100357;28;21003;-46
2022/03/06 03:54:43;;;;;;;1.80;1.70;;;0.70;99.90;;;;;;5104350;28;20203;-43
2022/03/06 03:57:10;;;;;;;1.40;1.30;;;0.70;99.90;;;;;;5088028;28;20217;-44
2022/03/06 03:59:37;;;;;;;1.97;1.20;;;0.70;99.90;;;;;;5100862;28;20212;-45
2022/03/06 04:02:04;;;;;;;3.40;1.50;;;0.70;99.90;;;;;;5101096;28;20233;-42
2022/03/06 04:04:31;;;;;;;1.63;1.37;;;0.70;99.90;;;;;;5103042;28;20408;-43
2022/03/06 04:06:59;;;;;;;2.30;1.50;;;0.70;99.90;;;;;;5102641;27;20196;-44
2022/03/06 04:09:27;;;;;;;2.37;1.40;;;0.70;99.90;;;;;;5102658;28;20204;-45
2022/03/06 04:11:54;;;;;;;1.50;1.40;;;0.70;99.90;;;;;;5101793;27;20245;-45
2022/03/06 04:14:21;;;;;;;1.50;1.40;;;0.80;99.90;;;;;;5091297;28;20202;-43
2022/03/06 04:16:48;;;;;;;2.00;1.50;;;0.80;99.90;;;;;;5103321;28;20281;-46
2022/03/06 04:19:15;;;;;;;1.67;1.50;;;0.80;99.90;;;;;;5099174;28;20208;-44
2022/03/06 04:21:42;;;;;;;1.47;1.37;;;0.80;99.90;;;;;;5104385;28;20265;-46
2022/03/06 04:24:10;;;;;;;1.73;1.13;;;0.80;99.90;;;;;;5100394;28;20201;-45
2022/03/06 04:26:38;;;;;;;2.10;1.53;;;0.80;99.90;;;;;;5103159;28;20207;-44
2022/03/06 04:29:05;;;;;;;2.40;1.47;;;0.80;99.90;;;;;;5087865;28;20211;-46
2022/03/06 04:31:32;;;;;;;2.70;1.57;;;0.80;99.90;;;;;;5102551;28;20247;-45
2022/03/06 04:33:59;;;;;;;2.97;1.47;;;0.80;99.90;;;;;;5102263;28;20644;-44
2022/03/06 04:36:26;;;;;;;1.57;1.47;;;0.80;99.90;;;;;;5100838;28;20417;-43
2022/03/06 04:38:53;;;;;;;1.90;1.30;;;0.80;99.90;;;;;;5103652;28;20204;-49
2022/03/06 04:41:21;;;;;;;3.37;1.50;;;0.80;99.90;;;;;;5087493;28;20329;-45
2022/03/06 04:43:48;;;;;;;1.73;1.60;;;0.80;99.90;;;;;;5087760;28;20227;-42
2022/03/06 04:46:15;;;;;;;2.90;1.50;;;0.80;99.90;;;;;;5092648;28;20213;-44
2022/03/06 04:48:42;;;;;;;2.07;1.87;;;0.80;99.90;;;;;;5103314;28;20204;-44
2022/03/06 04:51:09;;;;;;;1.47;1.30;;;0.80;99.90;;;;;;5099403;28;20214;-43
2022/03/06 04:53:37;;;;;;;1.60;1.20;;;0.90;99.90;;;;;;5103372;28;20195;-41
2022/03/06 04:56:05;;;;;;;1.77;1.27;;;0.80;99.90;;;;;;5098524;28;20188;-42
2022/03/06 04:58:33;;;;;;;2.67;1.77;;;0.80;99.90;;;;;;5103352;28;20208;-44
2022/03/06 05:01:00;;;;;;;1.83;1.60;;;0.90;99.90;;;;;;5078262;28;20724;-43
2022/03/06 05:03:27;;;;;;;2.80;1.73;;;0.90;99.90;;;;;;5102800;27;20217;-43
2022/03/06 05:05:54;;;;;;;1.83;1.70;;;0.90;99.90;;;;;;5101086;28;20196;-43
2022/03/06 05:08:21;;;;;;;2.87;1.57;;;0.90;99.90;;;;;;5092486;28;20202;-44
2022/03/06 05:10:48;;;;;;;4.07;2.10;;;0.90;99.90;;;;;;5107534;27;20195;-43
2022/03/06 05:13:15;;;;;;;1.53;1.37;;;0.90;99.90;;;;;;5100482;28;20190;-42
2022/03/06 05:15:43;;;;;;;4.30;1.97;;;0.90;99.90;;;;;;5101860;28;20296;-43
2022/03/06 05:18:11;;;;;;;2.10;1.53;;;0.90;99.90;;;;;;5089609;28;20795;-44
2022/03/06 05:20:38;;;;;;;3.97;2.10;;;0.90;99.90;;;;;;5110599;28;20229;-44
2022/03/06 05:23:05;;;;;;;1.90;1.43;;;0.90;99.90;;;;;;5090037;28;20310;-43
2022/03/06 05:25:32;;;;;;;5.20;1.87;;;0.90;99.90;;;;;;5098674;28;20516;-46
2022/03/06 05:27:59;;;;;;;2.90;1.90;;;0.90;99.90;;;;;;5104802;28;20218;-44
2022/03/06 05:30:27;;;;;;;2.43;2.23;;;0.90;99.90;;;;;;5105881;28;20610;-46
2022/03/06 05:32:54;;;;;;;3.43;2.03;;;0.90;99.90;;;;;;5087307;28;20230;-43
2022/03/06 05:35:21;;;;;;;2.63;2.00;;;0.90;99.90;;;;;;5099058;28;20931;-41
2022/03/06 05:37:48;;;;;;;2.17;1.50;;;0.90;99.90;;;;;;5106345;27;20685;-42
2022/03/06 05:40:15;;;;;;;2.43;1.60;;;0.90;99.90;;;;;;5097885;27;20269;-44
2022/03/06 05:42:41;;;;;;;2.10;1.77;;;0.90;99.90;;;;;;5106923;28;20222;-43
2022/03/06 05:45:09;;;;;;;2.00;1.80;;;0.90;99.90;;;;;;5103121;28;20219;-41
2022/03/06 05:47:36;;;;;;;2.50;1.97;;;1.00;99.90;;;;;;5092973;28;20211;-47
2022/03/06 05:50:07;;;;;;;1.83;1.73;;;1.00;99.90;;;;;;5102738;28;20616;-42
2022/03/06 05:52:33;;;;;;;2.00;1.83;;;1.00;99.90;;;;;;5095899;28;20314;-43
2022/03/06 05:55:00;;;;;;;4.23;1.90;;;1.00;99.90;;;;;;5103199;28;20203;-43
2022/03/06 05:57:27;;;;;;;2.10;1.90;;;1.00;99.90;;;;;;5105486;28;20197;-45
2022/03/06 05:59:54;;;;;;;3.67;2.40;;;1.00;99.90;;;;;;5104859;27;20210;-44
2022/03/06 06:02:21;;;;;;;2.33;2.13;;;1.00;99.90;;;;;;5108606;27;20230;-44
2022/03/06 06:04:48;;;;;;;2.33;1.97;;;1.00;99.90;;;;;;5087154;28;20219;-44
2022/03/06 06:07:16;;;;;;;2.07;1.90;;;1.00;99.90;;;;;;5099727;27;20207;-42
2022/03/06 06:09:43;;;;;;;2.70;1.70;;;1.00;99.90;;;;;;5109027;27;20938;-45
2022/03/06 06:12:10;;;;;;;1.90;1.80;;;1.00;99.90;;;;;;5101941;27;20231;-44
2022/03/06 06:14:37;;;;;;;2.63;1.90;;;1.10;99.90;;;;;;5101061;28;20207;-43
2022/03/06 06:17:04;;;;;;;2.57;1.83;;;1.10;99.90;;;;;;5093712;27;20207;-46
2022/03/06 06:19:31;;;;;;;2.63;1.83;;;1.00;99.90;;;;;;5086540;27;20207;-43
2022/03/06 06:21:58;;;;;;;6.20;2.03;;;1.10;99.90;;;;;;5098786;28;20212;-43
2022/03/06 06:24:26;;;;;;;1.70;1.60;;;1.10;99.90;;;;;;5093539;28;20281;-45
2022/03/06 06:26:55;;;;;;;1.93;1.80;;;1.10;99.90;;;;;;5090265;27;20218;-46
2022/03/06 06:29:22;;;;;;;2.23;2.00;;;1.10;99.90;;;;;;5111534;27;20560;-43
2022/03/06 06:31:49;;;;;;;2.73;1.93;;;1.10;99.90;;;;;;5087764;28;20251;-45
2022/03/06 06:34:16;;;;;;;1.87;1.77;;;1.10;99.90;;;;;;5088495;27;20408;-46
2022/03/06 06:36:43;;;;;;;4.03;2.10;;;1.10;99.90;;;;;;5097754;28;20208;-42
2022/03/06 06:39:11;;;;;;;3.03;1.90;;;1.10;99.90;;;;;;5096853;27;20922;-42
2022/03/06 06:41:39;;;;;;;4.87;2.10;;;1.10;99.90;;;;;;5108105;27;20220;-45
2022/03/06 06:44:06;;;;;;;4.20;1.90;;;1.10;99.90;;;;;;5090213;28;20222;-42
2022/03/06 06:46:34;;;;;;;1.80;1.70;;;1.20;99.90;;;;;;5105441;28;20697;-43
2022/03/06 06:49:03;;;;;;;3.40;1.83;;;1.20;99.90;;;;;;5093851;28;20211;-46
2022/03/06 06:51:30;;;;;;;2.10;1.83;;;1.20;99.90;;;;;;5097478;28;20222;-43
2022/03/06 06:53:57;;;;;;;2.73;1.77;;;1.20;99.90;;;;;;5099050;28;20559;-41
2022/03/06 06:56:24;;;;;;;2.73;1.67;;;1.20;99.90;;;;;;5102737;28;20223;-42
2022/03/06 06:58:52;;;;;;;1.77;1.67;;;1.30;99.90;;;;;;5096904;27;20211;-45
2022/03/06 07:01:19;;;;;;;2.20;1.70;;;1.30;99.90;;;;;;5107995;27;20224;-42
2022/03/06 07:03:46;;;;;;;1.60;1.50;;;1.30;99.90;;;;;;5108921;27;20258;-43
2022/03/06 07:06:13;;;;;;;1.50;1.40;;;1.30;99.90;;;;;;5085962;28;20846;-42
2022/03/06 07:08:40;;;;;;;1.70;1.60;;;1.30;99.90;;;;;;5099702;28;20206;-42
2022/03/06 07:11:07;;;;;;;2.47;2.00;;;1.30;99.90;;;;;;5101048;28;21142;-48
2022/03/06 07:13:35;;;;;;;1.83;1.60;;;1.40;99.90;;;;;;5099913;28;20196;-41
2022/03/06 07:16:03;;;;;;;1.50;1.40;;;1.40;99.90;;;;;;5106985;27;20214;-44
2022/03/06 07:18:30;;;;;;;1.70;1.60;;;1.40;99.90;;;;;;5105038;27;20208;-42
2022/03/06 07:20:57;;;;;;;1.67;1.57;;;1.50;99.90;;;;;;5108124;27;20197;-46
2022/03/06 07:23:23;;;;;;;2.07;1.60;;;1.50;99.90;;;;;;5091185;28;20226;-42
2022/03/06 07:25:50;;;;;;;1.90;1.60;;;1.60;99.90;;;;;;5102568;28;20204;-44
2022/03/06 07:28:18;;;;;;;2.33;1.80;;;1.60;99.90;;;;;;5094439;28;20560;-42
2022/03/06 07:30:44;;;;;;;2.20;1.30;;;1.60;99.90;;;;;;5109892;27;20227;-45
2022/03/06 07:33:13;;;;;;;3.67;1.20;;;1.70;99.90;;;;;;5099887;28;20185;-44
2022/03/06 07:35:40;;;;;;;1.60;1.50;;;1.70;99.90;;;;;;5102227;28;20222;-42
2022/03/06 07:38:07;;;;;;;1.33;1.23;;;1.80;99.90;;;;;;5079042;27;20700;-46
2022/03/06 07:40:34;;;;;;;4.90;1.30;;;1.80;99.90;;;;;;5102661;27;20692;-44
2022/03/06 07:43:02;;;;;;;3.90;1.37;;;1.80;99.90;;;;;;5101737;28;20339;-42
2022/03/06 07:45:29;;;;;;;1.83;1.40;;;1.80;99.90;;;;;;5091119;28;20196;-43
2022/03/06 07:47:56;;;;;;;2.87;1.27;;;1.90;99.90;;;;;;5114148;27;20210;-43
2022/03/06 07:50:26;;;;;;;2.30;1.40;;;1.90;99.90;;;;;;5097911;27;20188;-45
2022/03/06 07:52:53;;;;;;;1.90;1.23;;;2.00;99.90;;;;;;5082322;28;20690;-43
2022/03/06 07:55:20;;;;;;;3.17;1.53;;;2.00;99.90;;;;;;5096463;28;20712;-42
2022/03/06 07:57:46;;;;;;;1.90;1.37;;;2.20;99.90;;;;;;5105322;27;20628;-46
2022/03/06 08:00:14;;;;;;;1.47;1.10;;;2.30;99.90;;;;;;5096639;27;20424;-43
2022/03/06 08:02:41;;;;;;;1.87;1.20;;;2.40;99.90;;;;;;5101324;28;20601;-45
2022/03/06 08:05:09;;;;;;;2.57;1.73;;;2.60;99.90;;;;;;5101017;27;20192;-43
2022/03/06 08:07:37;;;;;;;3.50;1.60;;;2.70;99.90;;;;;;5088285;28;20210;-42
2022/03/06 08:10:06;;;;;;;2.37;1.20;;;2.70;99.90;;;;;;5101426;27;20257;-43
2022/03/06 08:12:33;;;;;;;1.30;1.20;;;2.80;99.90;;;;;;5111694;27;20216;-46
2022/03/06 08:14:59;;;;;;;2.00;1.17;;;2.90;99.90;;;;;;5096361;28;20201;-48
2022/03/06 08:17:26;;;;;;;2.20;1.50;;;3.00;99.90;;;;;;5093029;27;20200;-45
2022/03/06 08:19:53;;;;;;;1.70;1.27;;;3.00;99.90;;;;;;5112291;27;20571;-44
2022/03/06 08:22:22;;;;;;;2.23;1.10;;;3.00;99.90;;;;;;5100374;28;20246;-42
2022/03/06 08:24:51;;;;;;;3.43;1.60;;;3.10;99.90;;;;;;5089309;28;20228;-43
2022/03/06 08:27:18;;;;;;;3.13;1.47;;;3.00;99.90;;;;;;5094778;27;20891;-42
2022/03/06 08:29:45;;;;;;;1.50;1.33;;;3.00;99.90;;;;;;5112099;27;20194;-43
2022/03/06 08:32:12;;;;;;;1.53;1.30;;;3.00;99.90;;;;;;5090662;27;20221;-43
2022/03/06 08:34:38;;;;;;;3.47;1.57;;;3.10;99.90;;;;;;5103794;28;20208;-44
2022/03/06 08:37:05;;;;;;;2.17;1.20;;;3.10;99.90;;;;;;5097161;28;20217;-44
2022/03/06 08:39:32;;;;;;;1.67;1.07;;;3.10;99.90;;;;;;5090515;27;20695;-42
2022/03/06 08:42:00;;;;;;;2.77;1.20;;;3.10;99.90;;;;;;5106321;27;20224;-43
2022/03/06 08:44:27;;;;;;;1.60;0.97;;;3.20;99.90;;;;;;5100565;28;20301;-44
2022/03/06 08:46:54;;;;;;;1.73;1.10;;;3.20;99.90;;;;;;5096418;27;20282;-44
2022/03/06 08:49:21;;;;;;;2.47;1.50;;;3.30;99.90;;;;;;5090122;28;20216;-43
2022/03/06 08:51:48;;;;;;;1.30;1.20;;;3.20;99.90;;;;;;5102801;28;20244;-44
2022/03/06 08:54:15;;;;;;;1.23;1.13;;;3.30;99.90;;;;;;5081830;28;20205;-42
2022/03/06 08:56:42;;;;;;;2.73;1.80;;;3.30;99.90;;;;;;5094211;28;20205;-42
2022/03/06 08:59:10;;;;;;;1.70;1.60;;;3.30;99.90;;;;;;5092874;27;20186;-43
2022/03/06 09:01:37;;;;;;;1.80;1.70;;;3.30;99.90;;;;;;5091126;27;20243;-43
2022/03/06 09:04:03;;;;;;;2.80;2.57;;;3.30;99.90;;;;;;5095571;28;20220;-42
2022/03/06 09:06:30;;;;;;;3.70;2.27;;;3.30;99.90;;;;;;5093522;28;20779;-43
2022/03/06 09:08:57;;;;;;;2.17;1.80;;;3.30;99.90;;;;;;5098147;28;20216;-43
2022/03/06 09:11:24;;;;;;;2.20;2.00;;;3.40;99.90;;;;;;5086341;28;20224;-46
2022/03/06 09:13:51;;;;;;;3.27;2.00;;;3.50;99.90;;;;;;5096439;28;20193;-44
2022/03/06 09:16:19;;;;;;;2.90;2.13;;;3.60;99.90;;;;;;5096127;28;20203;-46
2022/03/06 09:18:47;;;;;;;2.40;1.80;;;3.60;99.90;;;;;;5101067;28;20202;-45
2022/03/06 09:21:14;;;;;;;1.57;1.47;;;3.60;99.90;;;;;;5097304;28;20232;-46
2022/03/06 09:23:40;;;;;;;3.10;1.60;;;3.70;99.90;;;;;;5086882;28;20213;-43
2022/03/06 09:26:07;;;;;;;2.80;1.70;;;3.80;99.90;;;;;;5081062;28;20212;-44
2022/03/06 09:28:34;;;;;;;1.97;1.67;;;3.90;99.90;;;;;;5100915;28;20217;-45
2022/03/06 09:31:01;;;;;;;2.23;1.57;;;4.00;99.90;;;;;;5103036;28;20205;-42
2022/03/06 09:33:29;;;;;;;1.87;1.70;;;4.20;99.90;;;;;;5090637;28;20197;-45
2022/03/06 09:35:56;;;;;;;2.13;1.83;;;4.20;99.90;;;;;;5098849;28;20193;-44
2022/03/06 09:38:23;;;;;;;1.97;1.77;;;4.10;99.90;;;;;;5098121;28;20204;-44
2022/03/06 09:40:52;;;;;;;2.73;2.13;;;4.10;99.90;;;;;;5093737;28;20200;-44
2022/03/06 09:43:19;;;;;;;2.50;1.77;;;4.00;99.90;;;;;;5102708;28;20201;-46
2022/03/06 09:45:47;;;;;;;2.50;1.57;;;3.90;99.90;;;;;;5097694;28;20216;-44
2022/03/06 09:48:16;;;;;;;1.63;1.43;;;3.90;99.90;;;;;;5096943;28;20645;-47
2022/03/06 09:50:46;;;;;;;2.90;1.37;;;3.80;99.90;;;;;;5093665;28;20285;-47
2022/03/06 09:53:13;;;;;;;1.70;1.60;;;3.90;99.90;;;;;;5100512;28;20280;-46
2022/03/06 09:55:40;;;;;;;2.40;1.67;;;3.90;99.90;;;;;;5085607;28;20197;-44
2022/03/06 09:58:07;;;;;;;3.27;2.17;;;3.80;99.90;;;;;;5099402;28;20193;-44
2022/03/06 10:00:35;;;;;;;2.33;1.63;;;3.80;99.90;;;;;;5094268;28;20258;-43
2022/03/06 10:03:04;;;;;;;1.33;1.33;;;3.80;99.90;;;;;;5101583;28;20694;-44
2022/03/06 10:05:33;;;;;;;1.57;1.47;;;3.80;99.90;;;;;;5094834;28;20225;-43
2022/03/06 10:08:21;;;;;;;3.27;1.60;;;3.90;99.90;;;;;;5101386;28;20208;-43
2022/03/06 10:10:49;;;;;;;2.00;1.80;;;4.00;99.90;;;;;;5098830;28;20213;-44
2022/03/06 10:13:21;;;;;;;2.87;1.60;;;4.00;99.90;;;;;;5088729;28;20700;-44
2022/03/06 10:16:04;;;;;;;1.63;1.53;;;4.10;99.90;;;;;;5094018;28;20197;-43
2022/03/06 10:18:32;;;;;;;2.70;1.50;;;4.20;99.90;;;;;;5100565;27;20215;-42
2022/03/06 10:21:11;;;;;;;1.57;1.43;;;4.30;99.90;;;;;;5102760;27;20216;-45
2022/03/06 10:23:40;;;;;;;1.57;1.47;;;4.30;99.90;;;;;;5097006;28;20217;-43
2022/03/06 10:26:09;;;;;;;2.53;1.43;;;4.40;99.90;;;;;;5102170;28;20205;-43
2022/03/06 10:28:47;;;;;;;1.93;1.53;;;4.30;99.90;;;;;;5089074;27;20258;-44
2022/03/06 10:31:14;;;;;;;2.20;1.40;;;4.20;99.70;;;;;;5104921;28;20217;-45
2022/03/06 10:33:55;;;;;;;1.30;1.20;;;4.20;99.90;;;;;;5101683;28;20185;-44
2022/03/06 10:36:30;;;;;;;4.57;1.90;;;4.20;99.50;;;;;;5104056;27;20205;-45
2022/03/06 10:38:58;;;;;;;1.70;1.50;;;4.10;99.60;;;;;;5108097;27;20776;-46
2022/03/06 10:41:35;;;;;;;3.00;1.80;;;4.00;99.90;;;;;;5104061;28;20221;-43
2022/03/06 10:44:02;;;;;;;2.57;1.67;;;3.90;99.80;;;;;;5091534;28;20228;-44
2022/03/06 10:46:33;;;;;;;4.23;1.97;;;3.90;99.90;;;;;;5097378;28;20216;-44
2022/03/06 10:49:01;;;;;;;2.40;1.77;;;4.00;99.90;;;;;;5104808;28;20194;-41
2022/03/06 10:51:29;;;;;;;2.20;1.90;;;4.10;99.90;;;;;;5096634;28;20312;-46
2022/03/06 10:53:59;;;;;;;3.83;2.03;;;4.20;99.90;;;;;;5098061;28;20386;-45
2022/03/06 10:56:27;;;;;;;2.80;1.43;;;4.30;99.90;;;;;;5103447;27;20551;-43
2022/03/06 10:58:56;;;;;;;3.43;1.70;;;4.50;99.90;;;;;;5098654;27;20889;-43
2022/03/06 11:01:24;;;;;;;4.23;1.60;;;4.60;99.90;;;;;;5104821;28;20277;-42
2022/03/06 11:03:54;;;;;;;2.17;1.67;;;4.70;99.90;;;;;;5102420;28;20209;-46
2022/03/06 11:06:21;;;;;;;3.33;1.90;;;4.60;99.40;;;;;;5103800;28;20216;-45
2022/03/06 11:08:48;;;;;;;1.67;1.57;;;4.50;99.70;;;;;;5096200;28;20208;-45
2022/03/06 11:11:17;;;;;;;1.83;1.73;;;4.40;99.80;;;;;;5105008;28;20596;-43
2022/03/06 11:13:45;;;;;;;2.90;1.80;;;4.40;99.90;;;;;;5101042;28;20197;-47
2022/03/06 11:16:12;;;;;;;4.23;1.73;;;4.40;99.90;;;;;;5088594;28;20197;-42
2022/03/06 11:18:39;;;;;;;1.87;1.77;;;4.60;99.90;;;;;;5092301;27;20197;-45
2022/03/06 11:21:07;;;;;;;3.07;2.43;;;4.70;99.60;;;;;;5109074;27;20245;-46
2022/03/06 11:23:37;;;;;;;2.00;1.90;;;4.70;99.60;;;;;;5091978;28;20202;-44
2022/03/06 11:26:42;;;;;;;3.00;1.83;;;4.70;99.90;;;;;;5095279;28;20216;-46
2022/03/06 11:29:51;;;;;;;4.63;2.10;;;4.80;99.60;;;;;;5096140;28;20197;-46
2022/03/06 11:32:25;;;;;;;2.57;2.17;;;4.90;99.30;;;;;;5086843;28;20221;-44
2022/03/06 11:34:53;;;;;;;2.53;2.33;;;4.80;99.90;;;;;;5091922;28;20909;-43
2022/03/06 11:37:20;;;;;;;3.20;2.40;;;4.80;99.90;;;;;;5103642;27;20280;-44
2022/03/06 11:39:48;;;;;;;3.10;1.80;;;4.80;99.90;;;;;;5095099;27;20200;-47
2022/03/06 11:42:55;;;;;;;2.33;1.83;;;4.80;99.90;;;;;;5110426;27;20237;-45
2022/03/06 11:45:45;;;;;;;3.37;2.10;;;4.70;99.90;;;;;;5095038;27;20224;-42
2022/03/06 11:48:12;;;;;;;2.60;2.40;;;4.70;99.90;;;;;;5104148;27;20204;-45
2022/03/06 11:50:38;;;;;;;5.13;2.50;;;4.70;99.90;;;;;;5103517;27;20563;-43
2022/03/06 11:53:20;;;;;;;2.80;2.20;;;4.70;99.90;;;;;;5102351;28;20231;-48
2022/03/06 11:55:47;;;;;;;3.50;2.60;;;4.80;99.90;;;;;;5084140;27;20203;-47
2022/03/06 11:58:15;;;;;;;3.23;2.37;;;4.90;99.90;;;;;;5107491;27;20205;-45
2022/03/06 12:00:48;;;;;;;2.73;2.30;;;4.80;99.90;;;;;;5084801;28;20200;-44
2022/03/06 12:03:15;;;;;;;3.40;3.00;;;4.80;99.90;;;;;;5087804;28;20712;-44
2022/03/06 12:05:48;;;;;;;3.60;2.53;;;4.80;99.90;;;;;;5099612;28;20209;-43
2022/03/06 12:08:17;;;;;;;2.93;2.00;;;4.80;99.90;;;;;;5098190;27;20197;-43
2022/03/06 12:10:45;;;;;;;2.93;2.20;;;4.80;99.90;;;;;;5081613;27;20338;-44
2022/03/06 12:13:23;;;;;;;2.57;2.37;;;4.90;99.90;;;;;;5103919;27;20221;-42
2022/03/06 12:16:01;;;;;;;1.97;1.87;;;4.90;99.90;;;;;;5080240;28;20194;-47
2022/03/06 12:18:28;;;;;;;4.13;2.13;;;5.00;99.90;;;;;;5080200;28;20203;-45
2022/03/06 12:20:54;;;;;;;2.30;2.00;;;5.00;99.90;;;;;;5089945;28;20195;-45
2022/03/06 12:23:24;;;;;;;3.53;2.43;;;5.00;99.90;;;;;;5101959;28;20272;-49
2022/03/06 12:25:53;;;;;;;3.37;2.33;;;5.10;99.90;;;;;;5088722;28;20319;-46
2022/03/06 12:28:26;;;;;;;5.63;2.43;;;5.10;99.90;;;;;;5094444;28;20540;-46
2022/03/06 12:30:56;;;;;;;2.73;2.53;;;5.10;99.90;;;;;;5091518;28;20322;-47
2022/03/06 12:33:30;;;;;;;3.63;2.60;;;5.10;99.90;;;;;;5082408;28;20225;-45
2022/03/06 12:36:11;;;;;;;2.90;2.63;;;5.20;99.90;;;;;;5096467;28;20233;-44
2022/03/06 12:38:38;;;;;;;4.13;2.70;;;5.10;99.90;;;;;;5088773;28;20200;-49
2022/03/06 12:41:06;;;;;;;2.10;2.00;;;5.10;99.90;;;;;;5095560;28;20217;-44
2022/03/06 12:43:45;;;;;;;4.30;2.83;;;5.20;99.90;;;;;;5096046;28;20205;-46
2022/03/06 12:46:13;;;;;;;2.90;2.60;;;5.20;99.90;;;;;;5091928;28;20606;-43
2022/03/06 12:48:39;;;;;;;5.53;2.73;;;5.30;99.90;;;;;;5076834;28;20194;-43
2022/03/06 12:51:06;;;;;;;7.17;2.63;;;5.30;99.90;;;;;;5094515;28;20222;-46
2022/03/06 12:53:33;;;;;;;2.30;2.20;;;5.30;99.90;;;;;;5096706;28;20201;-46
2022/03/06 12:56:00;;;;;;;3.27;2.30;;;5.30;99.90;;;;;;5095476;28;20197;-43
2022/03/06 12:58:42;;;;;;;3.00;2.53;;;5.30;99.90;;;;;;5096978;27;20192;-43
2022/03/06 13:01:11;;;;;;;2.80;2.50;;;5.30;99.90;;;;;;5103496;28;20278;-43
2022/03/06 13:03:38;;;;;;;2.87;2.20;;;5.20;99.90;;;;;;5087252;28;20292;-46